createdAt,value
2022-12-25T00:01:52.785Z,11.10
2022-12-25T00:04:20.191Z,11.30
2022-12-25T00:06:47.607Z,11.40
2022-12-25T00:09:15.031Z,11.20
2022-12-25T00:11:42.921Z,11.10
2022-12-25T00:14:10.711Z,11.20
2022-12-25T00:16:39.627Z,11.30
2022-12-25T00:19:07.298Z,11.20
2022-12-25T00:21:34.775Z,12.20
2022-12-25T00:24:03.474Z,12.40
2022-12-25T00:26:30.981Z,11.30
2022-12-25T00:31:27.269Z,11.50
2022-12-25T00:33:54.751Z,12.90
2022-12-25T00:36:23.271Z,10.80
2022-12-25T00:38:51.098Z,10.90
2022-12-25T00:41:42.156Z,10.90
2022-12-25T00:44:13.836Z,10.90
2022-12-25T00:46:42.581Z,10.90
2022-12-25T00:49:12.436Z,10.70
2022-12-25T00:51:41.317Z,11.00
2022-12-25T00:56:37.170Z,11.10
2022-12-25T00:59:04.635Z,12.40
2022-12-25T01:03:59.954Z,11.00
2022-12-25T01:11:41.561Z,11.00
2022-12-25T01:14:09.434Z,11.30
2022-12-25T01:16:37.126Z,11.10
2022-12-25T01:19:04.800Z,11.00
2022-12-25T01:21:32.456Z,11.10
2022-12-25T01:23:59.946Z,10.80
2022-12-25T01:26:27.722Z,11.00
2022-12-25T01:28:55.194Z,11.30
2022-12-25T01:31:24.255Z,11.10
2022-12-25T01:33:52.794Z,11.30
2022-12-25T01:36:24.437Z,11.10
2022-12-25T01:38:53.758Z,11.10
2022-12-25T01:41:23.722Z,11.00
2022-12-25T01:44:00.369Z,11.50
2022-12-25T01:46:28.116Z,11.60
2022-12-25T01:48:59.031Z,11.00
2022-12-25T01:52:03.195Z,10.90
2022-12-25T01:54:36.056Z,10.90
2022-12-25T01:57:08.281Z,11.20
2022-12-25T01:59:36.704Z,11.20
2022-12-25T02:02:04.375Z,10.90
2022-12-25T02:04:41.271Z,11.00
2022-12-25T02:07:24.475Z,11.60
2022-12-25T02:09:52.898Z,11.00
2022-12-25T02:12:24.693Z,11.20
2022-12-25T02:14:59.657Z,11.00
2022-12-25T02:17:57.419Z,10.90
2022-12-25T02:20:40.156Z,11.40
2022-12-25T02:23:29.419Z,11.10
2022-12-25T02:26:30.219Z,10.90
2022-12-25T02:29:17.348Z,11.00
2022-12-25T02:32:02.184Z,10.90
2022-12-25T02:34:32.461Z,10.90
2022-12-25T02:37:26.171Z,10.90
2022-12-25T02:42:51.109Z,10.90
2022-12-25T02:45:44.783Z,11.10
2022-12-25T02:48:32.380Z,11.00
2022-12-25T02:51:23.587Z,11.00
2022-12-25T02:54:12.583Z,10.70
2022-12-25T02:57:01.999Z,10.90
2022-12-25T02:59:51.828Z,11.00
2022-12-25T03:02:40.146Z,10.80
2022-12-25T03:05:29.558Z,10.90
2022-12-25T03:07:59.355Z,10.90
2022-12-25T03:10:46.207Z,10.90
2022-12-25T03:13:19.662Z,10.90
2022-12-25T03:16:07.546Z,11.20
2022-12-25T03:18:35.986Z,10.90
2022-12-25T03:21:22.150Z,11.20
2022-12-25T03:24:13.371Z,11.00
2022-12-25T03:26:55.920Z,10.90
2022-12-25T03:29:50.788Z,11.30
2022-12-25T03:32:33.381Z,10.60
2022-12-25T03:35:23.795Z,10.70
2022-12-25T03:38:30.420Z,10.90
2022-12-25T03:41:41.784Z,10.90
2022-12-25T03:44:42.750Z,10.80
2022-12-25T03:47:37.621Z,10.80
2022-12-25T03:50:39.047Z,10.60
2022-12-25T03:53:31.464Z,10.80
2022-12-25T03:56:18.494Z,10.80
2022-12-25T03:59:21.141Z,10.80
2022-12-25T04:02:10.644Z,10.70
2022-12-25T04:04:57.198Z,12.60
2022-12-25T04:07:43.103Z,10.90
2022-12-25T04:10:29.481Z,10.80
2022-12-25T04:13:15.352Z,10.90
2022-12-25T04:16:01.402Z,11.10
2022-12-25T04:18:47.713Z,12.20
2022-12-25T04:21:34.122Z,10.80
2022-12-25T04:24:20.009Z,10.90
2022-12-25T04:27:13.624Z,11.90
2022-12-25T04:29:59.642Z,11.00
2022-12-25T04:32:45.583Z,10.60
2022-12-25T04:35:33.411Z,10.90
2022-12-25T04:38:00.721Z,10.80
2022-12-25T04:40:28.123Z,11.10
2022-12-25T04:42:55.577Z,11.00
2022-12-25T04:45:23.099Z,11.00
2022-12-25T04:47:50.696Z,10.80
2022-12-25T04:50:18.645Z,10.30
2022-12-25T04:52:47.690Z,10.90
2022-12-25T04:55:15.329Z,10.80
2022-12-25T04:57:43.847Z,10.80
2022-12-25T05:00:11.833Z,11.00
2022-12-25T05:02:39.400Z,10.90
2022-12-25T05:05:07.161Z,11.00
2022-12-25T05:10:02.355Z,11.00
2022-12-25T05:12:29.765Z,11.00
2022-12-25T05:14:57.206Z,11.00
2022-12-25T05:17:26.096Z,11.20
2022-12-25T05:19:54.529Z,10.90
2022-12-25T05:22:21.917Z,11.00
2022-12-25T05:24:49.454Z,11.10
2022-12-25T05:27:16.925Z,11.30
2022-12-25T05:29:47.055Z,12.00
2022-12-25T05:32:15.606Z,10.60
2022-12-25T05:34:42.985Z,11.70
2022-12-25T05:37:10.455Z,10.70
2022-12-25T05:39:37.888Z,10.80
2022-12-25T05:42:05.268Z,10.70
2022-12-25T05:47:00.502Z,10.90
2022-12-25T05:51:55.771Z,10.90
2022-12-25T05:54:24.729Z,10.90
2022-12-25T05:56:52.231Z,11.00
2022-12-25T05:59:19.595Z,11.00
2022-12-25T06:06:43.408Z,10.90
2022-12-25T06:09:13.460Z,10.90
2022-12-25T06:11:41.644Z,12.10
2022-12-25T06:14:13.032Z,11.10
2022-12-25T06:19:08.459Z,11.00
2022-12-25T06:21:35.959Z,10.80
2022-12-25T06:24:03.678Z,10.90
2022-12-25T06:33:54.381Z,10.90
2022-12-25T06:36:25.249Z,10.90
2022-12-25T06:38:53.596Z,12.40
2022-12-25T06:41:25.416Z,10.90
2022-12-25T06:43:58.478Z,10.90
2022-12-25T06:46:28.195Z,11.10
2022-12-25T06:48:55.744Z,11.30
2022-12-25T06:51:26.268Z,11.10
2022-12-25T06:53:55.477Z,11.60
2022-12-25T06:56:25.380Z,10.90
2022-12-25T06:59:08.313Z,11.10
2022-12-25T07:01:46.410Z,10.90
2022-12-25T07:04:26.044Z,10.80
2022-12-25T07:06:53.512Z,10.90
2022-12-25T07:11:48.830Z,10.80
2022-12-25T07:14:24.132Z,10.70
2022-12-25T07:16:52.213Z,10.70
2022-12-25T07:19:19.795Z,12.40
2022-12-25T07:24:20.443Z,11.20
2022-12-25T07:26:50.692Z,10.90
2022-12-25T07:29:19.621Z,10.90
2022-12-25T07:31:48.462Z,11.00
2022-12-25T07:34:18.006Z,12.70
2022-12-25T07:36:46.283Z,11.30
2022-12-25T07:39:14.095Z,11.00
2022-12-25T07:41:41.439Z,11.00
2022-12-25T07:44:17.438Z,11.00
2022-12-25T07:46:45.745Z,11.00
2022-12-25T07:49:13.219Z,11.00
2022-12-25T07:51:40.729Z,12.30
2022-12-25T07:54:08.287Z,11.00
2022-12-25T07:56:35.819Z,12.30
2022-12-25T07:59:03.336Z,11.10
2022-12-25T08:01:30.890Z,11.10
2022-12-25T08:04:01.058Z,11.70
2022-12-25T08:06:34.806Z,11.10
2022-12-25T08:09:04.432Z,11.20
2022-12-25T08:11:32.228Z,11.20
2022-12-25T08:13:59.688Z,11.20
2022-12-25T08:16:27.162Z,11.10
2022-12-25T08:18:54.514Z,11.20
2022-12-25T08:21:22.428Z,11.20
2022-12-25T08:23:49.947Z,11.20
2022-12-25T08:26:21.250Z,11.30
2022-12-25T08:28:49.410Z,11.20
2022-12-25T08:31:25.889Z,11.10
2022-12-25T08:33:55.806Z,11.20
2022-12-25T08:36:24.108Z,11.20
2022-12-25T08:39:02.422Z,12.00
2022-12-25T08:41:30.978Z,11.20
2022-12-25T08:43:58.714Z,11.70
2022-12-25T08:46:28.785Z,11.80
2022-12-25T08:48:57.736Z,11.10
2022-12-25T08:51:26.092Z,11.00
2022-12-25T08:53:57.946Z,11.90
2022-12-25T08:56:26.514Z,11.10
2022-12-25T08:58:55.363Z,11.20
2022-12-25T09:01:24.677Z,11.10
2022-12-25T09:06:19.896Z,11.10
2022-12-25T09:08:49.626Z,11.40
2022-12-25T09:11:19.594Z,12.30
2022-12-25T09:13:48.236Z,11.10
2022-12-25T09:16:19.324Z,11.20
2022-12-25T09:18:47.222Z,11.20
2022-12-25T09:21:16.694Z,11.40
2022-12-25T09:23:44.470Z,11.20
2022-12-25T09:26:15.761Z,11.20
2022-12-25T09:28:50.159Z,11.20
2022-12-25T09:31:21.473Z,11.20
2022-12-25T09:33:49.847Z,11.30
2022-12-25T09:36:17.456Z,11.70
2022-12-25T09:38:44.754Z,11.30
2022-12-25T09:41:27.185Z,10.90
2022-12-25T09:44:08.737Z,11.90
2022-12-25T09:46:44.888Z,11.20
2022-12-25T09:49:12.359Z,11.30
2022-12-25T09:51:44.659Z,11.20
2022-12-25T09:54:24.812Z,11.80
2022-12-25T09:56:52.757Z,11.30
2022-12-25T09:59:26.456Z,11.20
2022-12-25T10:02:24.049Z,11.30
2022-12-25T10:05:18.803Z,11.10
2022-12-25T10:07:57.084Z,11.30
2022-12-25T10:10:48.691Z,11.40
2022-12-25T10:13:59.107Z,11.40
2022-12-25T10:16:47.449Z,11.40
2022-12-25T10:19:33.383Z,11.40
2022-12-25T10:22:09.007Z,11.50
2022-12-25T10:24:42.500Z,11.40
2022-12-25T10:27:31.729Z,11.50
2022-12-25T10:30:01.752Z,11.50
2022-12-25T10:32:29.274Z,11.50
2022-12-25T10:34:56.914Z,11.80
2022-12-25T10:37:25.294Z,11.50
2022-12-25T10:39:53.319Z,11.50
2022-12-25T10:42:34.117Z,11.30
2022-12-25T10:45:08.154Z,11.60
2022-12-25T10:47:38.552Z,11.70
2022-12-25T10:50:12.851Z,11.60
2022-12-25T10:53:01.008Z,11.60
2022-12-25T10:55:29.656Z,11.60
2022-12-25T10:57:58.682Z,11.60
2022-12-25T11:00:28.941Z,11.60
2022-12-25T11:02:57.320Z,11.60
2022-12-25T11:05:33.550Z,11.80
2022-12-25T11:08:02.525Z,11.60
2022-12-25T11:10:36.485Z,11.60
2022-12-25T11:13:07.678Z,11.70
2022-12-25T11:15:36.354Z,11.70
2022-12-25T11:18:19.828Z,11.80
2022-12-25T11:20:56.419Z,12.00
2022-12-25T11:23:27.061Z,12.60
2022-12-25T11:26:15.691Z,11.80
2022-12-25T11:28:45.274Z,11.80
2022-12-25T11:31:19.812Z,12.20
2022-12-25T11:33:58.530Z,11.90
2022-12-25T11:36:49.242Z,12.00
2022-12-25T11:39:22.516Z,12.00
2022-12-25T11:41:59.335Z,12.10
2022-12-25T11:44:57.471Z,12.00
2022-12-25T11:47:39.547Z,12.20
2022-12-25T11:50:13.577Z,12.30
2022-12-25T11:52:44.511Z,12.40
2022-12-25T11:57:41.718Z,12.50
2022-12-25T12:00:15.577Z,12.80
2022-12-25T12:03:12.144Z,12.60
2022-12-25T12:05:46.041Z,12.60
2022-12-25T12:11:18.616Z,12.80
2022-12-25T12:14:19.735Z,13.10
2022-12-25T12:19:26.778Z,13.40
2022-12-25T12:22:01.059Z,13.50
2022-12-25T12:24:42.779Z,13.80
2022-12-25T12:27:18.935Z,14.20
2022-12-25T12:29:51.279Z,14.20
2022-12-25T12:32:33.534Z,14.10
2022-12-25T12:35:09.260Z,13.60
2022-12-25T12:37:38.795Z,13.80
2022-12-25T12:40:09.403Z,13.70
2022-12-25T12:42:45.155Z,13.50
2022-12-25T12:45:19.583Z,13.40
2022-12-25T12:47:51.951Z,13.30
2022-12-25T12:50:33.535Z,13.30
2022-12-25T12:53:21.828Z,13.50
2022-12-25T12:55:50.903Z,13.30
2022-12-25T12:58:36.342Z,13.20
2022-12-25T13:01:28.801Z,13.70
2022-12-25T13:04:25.887Z,12.90
2022-12-25T13:07:12.463Z,12.70
2022-12-25T13:09:45.645Z,12.20
2022-12-25T13:12:15.271Z,12.40
2022-12-25T13:14:50.182Z,12.40
2022-12-25T13:17:22.937Z,12.20
2022-12-25T13:19:59.551Z,12.70
2022-12-25T13:22:36.284Z,12.60
2022-12-25T13:25:08.843Z,12.60
2022-12-25T13:30:17.637Z,12.50
2022-12-25T13:35:15.611Z,12.50
2022-12-25T13:37:44.289Z,12.70
2022-12-25T13:40:27.721Z,12.50
2022-12-25T13:42:59.543Z,12.40
2022-12-25T13:45:30.013Z,12.40
2022-12-25T13:50:35.053Z,12.40
2022-12-25T13:53:14.160Z,12.30
2022-12-25T13:55:44.146Z,13.00
2022-12-25T13:58:23.862Z,12.80
2022-12-25T14:00:54.152Z,13.10
2022-12-25T14:03:40.332Z,12.10
2022-12-25T14:06:27.908Z,11.90
2022-12-25T14:08:57.802Z,12.10
2022-12-25T14:11:28.266Z,12.20
2022-12-25T14:13:59.908Z,12.10
2022-12-25T14:16:27.842Z,12.20
2022-12-25T14:18:58.511Z,12.10
2022-12-25T14:21:32.794Z,12.90
2022-12-25T14:24:00.621Z,12.10
2022-12-25T14:26:30.602Z,12.10
2022-12-25T14:29:16.908Z,13.00
2022-12-25T14:31:46.996Z,12.30
2022-12-25T14:34:21.062Z,12.30
2022-12-25T14:36:49.441Z,12.20
2022-12-25T14:39:29.794Z,12.30
2022-12-25T14:41:58.459Z,12.20
2022-12-25T14:44:38.685Z,13.00
2022-12-25T14:47:13.543Z,12.10
2022-12-25T14:49:41.337Z,12.00
2022-12-25T14:52:44.979Z,12.10
2022-12-25T14:55:25.389Z,12.00
2022-12-25T14:58:05.321Z,12.10
2022-12-25T15:00:38.594Z,12.40
2022-12-25T15:03:17.340Z,12.00
2022-12-25T15:05:44.984Z,12.00
2022-12-25T15:08:12.353Z,13.00
2022-12-25T15:13:30.472Z,11.90
2022-12-25T15:16:15.318Z,11.80
2022-12-25T15:18:44.700Z,11.80
2022-12-25T15:21:33.341Z,11.70
2022-12-25T15:24:01.113Z,11.80
2022-12-25T15:26:30.811Z,11.70
2022-12-25T15:29:00.016Z,13.00
2022-12-25T15:31:33.290Z,11.60
2022-12-25T15:34:07.225Z,11.40
2022-12-25T15:39:02.515Z,11.60
2022-12-25T15:41:55.376Z,11.40
2022-12-25T15:44:23.455Z,11.40
2022-12-25T15:46:51.569Z,11.20
2022-12-25T15:49:19.209Z,11.40
2022-12-25T15:56:46.666Z,11.30
2022-12-25T15:59:15.623Z,11.30
2022-12-25T16:01:51.267Z,11.30
2022-12-25T16:04:19.989Z,11.60
2022-12-25T16:06:48.359Z,11.20
2022-12-25T16:09:16.997Z,11.10
2022-12-25T16:11:44.581Z,11.30
2022-12-25T16:14:15.477Z,11.00
2022-12-25T16:16:43.000Z,11.10
2022-12-25T16:19:11.299Z,10.90
2022-12-25T16:21:44.284Z,11.00
2022-12-25T16:24:13.685Z,13.20
2022-12-25T16:29:09.193Z,11.00
2022-12-25T16:31:39.018Z,11.10
2022-12-25T16:34:07.962Z,10.90
2022-12-25T16:36:37.026Z,10.90
2022-12-25T16:39:05.822Z,10.80
2022-12-25T16:41:33.534Z,11.10
2022-12-25T16:44:12.320Z,10.60
2022-12-25T16:46:40.420Z,10.80
2022-12-25T16:49:08.670Z,10.80
2022-12-25T16:51:36.287Z,11.10
2022-12-25T16:59:01.077Z,10.80
2022-12-25T17:01:29.028Z,10.80
2022-12-25T17:04:01.539Z,10.80
2022-12-25T17:06:29.634Z,11.10
2022-12-25T17:08:59.784Z,12.60
2022-12-25T17:14:02.157Z,10.80
2022-12-25T17:16:35.551Z,13.00
2022-12-25T17:19:08.109Z,10.80
2022-12-25T17:21:38.231Z,10.80
2022-12-25T17:26:36.684Z,10.80
2022-12-25T17:31:33.296Z,10.80
2022-12-25T17:34:02.250Z,10.80
2022-12-25T17:39:04.515Z,10.90
2022-12-25T17:41:32.589Z,10.80
2022-12-25T17:46:29.852Z,10.90
2022-12-25T17:48:59.036Z,11.50
2022-12-25T17:51:28.513Z,10.90
2022-12-25T17:54:03.072Z,10.90
2022-12-25T17:56:31.296Z,10.70
2022-12-25T17:59:03.509Z,11.00
2022-12-25T18:04:00.535Z,10.70
2022-12-25T18:06:29.923Z,10.70
2022-12-25T18:08:58.904Z,10.90
2022-12-25T18:11:32.770Z,11.20
2022-12-25T18:14:06.165Z,10.70
2022-12-25T18:16:36.393Z,10.70
2022-12-25T18:21:40.968Z,10.60
2022-12-25T18:24:08.837Z,9.80
2022-12-25T18:26:37.488Z,10.60
2022-12-25T18:29:05.284Z,10.80
2022-12-25T18:31:34.218Z,10.60
2022-12-25T18:34:04.501Z,10.60
2022-12-25T18:36:33.392Z,10.50
2022-12-25T18:39:01.053Z,10.50
2022-12-25T18:41:31.437Z,11.00
2022-12-25T18:44:00.199Z,10.30
2022-12-25T18:48:57.421Z,10.60
2022-12-25T18:54:02.586Z,10.70
2022-12-25T18:56:30.085Z,10.60
2022-12-25T18:58:59.772Z,10.70
2022-12-25T19:01:27.274Z,10.50
2022-12-25T19:04:02.061Z,10.70
2022-12-25T19:06:33.475Z,10.50
2022-12-25T19:11:42.111Z,10.60
2022-12-25T19:14:12.401Z,10.70
2022-12-25T19:24:04.263Z,10.60
2022-12-25T19:34:01.672Z,10.50
2022-12-25T19:36:31.450Z,10.70
2022-12-25T19:38:59.141Z,12.40
2022-12-25T19:46:26.383Z,10.40
2022-12-25T19:51:28.824Z,10.40
2022-12-25T19:53:57.713Z,10.20
2022-12-25T19:56:27.007Z,10.40
2022-12-25T20:01:25.187Z,9.90
2022-12-25T20:03:54.375Z,10.20
2022-12-25T20:06:25.978Z,10.20
2022-12-25T20:09:00.364Z,10.10
2022-12-25T20:11:31.255Z,10.10
2022-12-25T20:13:59.225Z,10.10
2022-12-25T20:21:27.574Z,10.00
2022-12-25T20:26:28.444Z,10.60
2022-12-25T20:28:56.624Z,11.80
2022-12-25T20:31:33.329Z,10.10
2022-12-25T20:34:06.471Z,10.20
2022-12-25T20:36:37.543Z,10.10
2022-12-25T20:39:09.644Z,12.20
2022-12-25T20:41:38.401Z,10.00
2022-12-25T20:44:10.385Z,10.10
2022-12-25T20:46:38.620Z,10.10
2022-12-25T20:51:35.271Z,9.80
2022-12-25T20:54:07.640Z,10.10
2022-12-25T20:56:36.959Z,10.10
2022-12-25T20:59:05.852Z,10.10
2022-12-25T21:01:33.451Z,10.70
2022-12-25T21:04:02.413Z,10.10
2022-12-25T21:06:29.897Z,10.50
2022-12-25T21:08:58.100Z,10.20
2022-12-25T21:11:26.310Z,10.20
2022-12-25T21:13:55.046Z,10.40
2022-12-25T21:16:24.520Z,10.30
2022-12-25T21:18:53.796Z,10.30
2022-12-25T21:21:22.042Z,10.30
2022-12-25T21:23:50.800Z,11.00
2022-12-25T21:26:26.605Z,10.30
2022-12-25T21:28:57.524Z,10.40
2022-12-25T21:31:29.297Z,10.30
2022-12-25T21:36:28.325Z,10.30
2022-12-25T21:39:01.685Z,7.90
2022-12-25T21:41:31.405Z,10.20
2022-12-25T21:44:00.463Z,10.50
2022-12-25T21:46:28.914Z,10.20
2022-12-25T21:48:58.489Z,10.20
2022-12-25T21:51:49.028Z,10.30
2022-12-25T21:54:17.877Z,10.30
2022-12-25T21:56:47.243Z,12.80
2022-12-25T21:59:20.244Z,10.30
2022-12-25T22:01:49.112Z,10.30
2022-12-25T22:04:18.400Z,10.20
2022-12-25T22:20:11.794Z,10.00
2022-12-25T22:25:09.162Z,9.90
2022-12-25T22:27:38.931Z,10.20
2022-12-25T22:30:09.253Z,10.20
2022-12-25T22:40:05.599Z,10.20
2022-12-25T22:59:52.711Z,10.20
2022-12-25T23:12:32.993Z,10.20
2022-12-25T23:17:47.182Z,10.10
2022-12-25T23:20:34.349Z,10.20
2022-12-25T23:31:38.122Z,10.20
2022-12-25T23:34:06.945Z,10.20
2022-12-25T23:39:09.581Z,10.20
2022-12-25T23:41:43.578Z,10.20
2022-12-25T23:44:12.853Z,10.20
2022-12-25T23:46:52.387Z,10.20
2022-12-25T23:49:21.633Z,10.20
2022-12-25T23:51:50.667Z,10.40
2022-12-25T23:54:22.314Z,11.00
2022-12-25T23:56:50.212Z,13.60
